Time;durP1;ratioP1;P1;durP2;ratioP2;P2;SDS_P1;SDS_P2;PMS_P1;PMS_P2;Temp;Humidity;BMP_temperature;BMP_pressure;BME280_temperature;BME280_humidity;BME280_pressure;Samples;Min_cycle;Max_cycle;Signal;HPM_P1;HPM_P2
2021/12/16 00:01:43;;;;;;;24.42;17.48;;;;;;;;;;10238333;28;20064;-54
2021/12/16 00:06:34;;;;;;;40.75;26.45;;;;;;;;;;10199096;28;20085;-54
2021/12/16 00:19:29;;;;;;;27.58;19.17;;;;;;;;;;10198039;28;20096;-54
2021/12/16 00:32:52;;;;;;;30.63;19.75;;;;;;;;;;10200086;28;20549;-54
2021/12/16 00:37:52;;;;;;;28.33;19.90;;;;;;;;;;10208197;28;20180;-54
2021/12/16 00:42:54;;;;;;;30.17;20.17;;;;;;;;;;10207350;28;20068;-55
2021/12/16 00:47:58;;;;;;;29.98;20.00;;;;;;;;;;10204349;28;20073;-52
2021/12/16 00:58:10;;;;;;;29.15;18.48;;;;;;;;;;10223917;28;20171;-53
2021/12/16 01:03:20;;;;;;;23.80;17.27;;;;;;;;;;10256091;28;20490;-50
2021/12/16 01:08:47;;;;;;;27.98;19.48;;;;;;;;;;10248871;28;20084;-54
2021/12/16 01:35:18;;;;;;;29.17;18.95;;;;;;;;;;10263917;28;20103;-53
2021/12/16 01:40:35;;;;;;;28.17;19.25;;;;;;;;;;10244896;28;20084;-56
2021/12/16 01:45:50;;;;;;;27.60;19.85;;;;;;;;;;10250514;28;20081;-54
2021/12/16 01:50:53;;;;;;;27.70;19.45;;;;;;;;;;10244656;28;20068;-54
2021/12/16 01:55:59;;;;;;;26.88;18.42;;;;;;;;;;10250619;28;20048;-53
2021/12/16 02:01:11;;;;;;;25.38;17.92;;;;;;;;;;10244156;28;20041;-54
2021/12/16 02:06:26;;;;;;;28.52;18.88;;;;;;;;;;10246948;28;20065;-54
2021/12/16 02:11:43;;;;;;;27.20;18.88;;;;;;;;;;10244706;28;20514;-54
2021/12/16 02:27:30;;;;;;;28.75;19.77;;;;;;;;;;10244202;28;20438;-54
2021/12/16 02:32:42;;;;;;;25.95;18.00;;;;;;;;;;10244996;28;20044;-54
2021/12/16 02:37:47;;;;;;;30.05;20.00;;;;;;;;;;10243087;28;20414;-54
2021/12/16 02:42:55;;;;;;;41.60;25.00;;;;;;;;;;10242721;28;20455;-54
2021/12/16 02:53:11;;;;;;;39.60;22.35;;;;;;;;;;10252151;28;20195;-52
2021/12/16 02:58:09;;;;;;;27.00;18.05;;;;;;;;;;10241289;28;20077;-54
2021/12/16 03:03:08;;;;;;;31.02;20.95;;;;;;;;;;10245958;28;20068;-55
2021/12/16 03:08:07;;;;;;;31.77;22.02;;;;;;;;;;10242907;28;20102;-52
2021/12/16 03:13:10;;;;;;;30.63;20.48;;;;;;;;;;10239274;28;20065;-51
2021/12/16 03:18:18;;;;;;;34.00;21.13;;;;;;;;;;10243786;28;20470;-52
2021/12/16 03:23:35;;;;;;;36.15;22.45;;;;;;;;;;10242570;28;20072;-53
2021/12/16 03:29:10;;;;;;;28.90;19.90;;;;;;;;;;10241611;28;20072;-50
2021/12/16 03:39:42;;;;;;;40.85;24.77;;;;;;;;;;10239182;28;20045;-55
2021/12/16 03:50:04;;;;;;;35.45;23.45;;;;;;;;;;10234808;28;20056;-55
2021/12/16 03:55:04;;;;;;;35.75;22.88;;;;;;;;;;10244377;28;20076;-54
2021/12/16 04:00:05;;;;;;;33.83;20.98;;;;;;;;;;10244253;28;20045;-50
2021/12/16 04:05:25;;;;;;;39.70;25.60;;;;;;;;;;10246439;28;20092;-53
2021/12/16 04:10:31;;;;;;;33.15;23.35;;;;;;;;;;10241765;28;20481;-53
2021/12/16 04:15:33;;;;;;;40.35;25.08;;;;;;;;;;10259720;28;20045;-54
2021/12/16 04:20:32;;;;;;;37.72;23.52;;;;;;;;;;10256676;28;20053;-56
2021/12/16 04:25:32;;;;;;;35.67;22.60;;;;;;;;;;10252755;28;20069;-54
2021/12/16 04:30:33;;;;;;;37.15;24.77;;;;;;;;;;10258892;28;20037;-53
2021/12/16 04:35:35;;;;;;;34.30;21.38;;;;;;;;;;10268157;28;20151;-54
2021/12/16 04:40:35;;;;;;;30.17;23.20;;;;;;;;;;10263825;28;20144;-54
2021/12/16 04:45:37;;;;;;;33.17;23.58;;;;;;;;;;10250926;28;20463;-54
2021/12/16 04:50:37;;;;;;;31.00;20.85;;;;;;;;;;10255130;28;20065;-53
2021/12/16 04:55:37;;;;;;;33.83;23.00;;;;;;;;;;10250542;28;20487;-53
2021/12/16 05:00:36;;;;;;;29.45;18.90;;;;;;;;;;10260832;28;20042;-54
2021/12/16 05:05:49;;;;;;;27.45;20.15;;;;;;;;;;10254136;28;20092;-54
2021/12/16 05:10:50;;;;;;;47.13;30.48;;;;;;;;;;10257539;28;20518;-52
2021/12/16 05:15:49;;;;;;;34.83;21.23;;;;;;;;;;10249965;28;20455;-52
2021/12/16 05:20:51;;;;;;;35.75;20.95;;;;;;;;;;10263814;28;20077;-52
2021/12/16 05:26:04;;;;;;;35.83;24.15;;;;;;;;;;10242205;28;20073;-50
2021/12/16 05:31:02;;;;;;;35.83;22.30;;;;;;;;;;10254941;28;20499;-52
2021/12/16 05:36:08;;;;;;;33.20;21.15;;;;;;;;;;10251841;28;20454;-51
2021/12/16 05:41:09;;;;;;;40.28;25.63;;;;;;;;;;10255131;28;20058;-51
2021/12/16 05:46:09;;;;;;;34.55;23.27;;;;;;;;;;10259636;28;20077;-53
2021/12/16 05:51:11;;;;;;;28.30;19.35;;;;;;;;;;10266772;28;20053;-54
2021/12/16 05:56:10;;;;;;;70.13;36.70;;;;;;;;;;10244440;28;20495;-55
2021/12/16 06:01:12;;;;;;;42.70;24.67;;;;;;;;;;10250911;28;20073;-55
2021/12/16 06:06:13;;;;;;;87.38;44.83;;;;;;;;;;10239032;28;20080;-51
2021/12/16 06:11:18;;;;;;;68.10;36.75;;;;;;;;;;10247682;28;20077;-53
2021/12/16 06:26:58;;;;;;;42.83;26.20;;;;;;;;;;10246747;28;19960;-52
2021/12/16 06:31:56;;;;;;;40.28;27.58;;;;;;;;;;10234972;28;20061;-52
2021/12/16 06:36:56;;;;;;;39.70;26.45;;;;;;;;;;10235964;28;20129;-53
2021/12/16 06:41:58;;;;;;;47.33;31.27;;;;;;;;;;10246745;28;20495;-53
2021/12/16 06:47:08;;;;;;;40.28;24.00;;;;;;;;;;10244643;28;20092;-53
2021/12/16 06:52:08;;;;;;;41.20;25.52;;;;;;;;;;10242756;28;20064;-54
2021/12/16 06:57:19;;;;;;;44.85;29.13;;;;;;;;;;10248538;28;20271;-49
2021/12/16 07:02:33;;;;;;;41.70;26.50;;;;;;;;;;10242234;28;20408;-53
2021/12/16 07:07:32;;;;;;;44.20;28.33;;;;;;;;;;10244097;28;20459;-50
2021/12/16 07:12:37;;;;;;;39.65;27.90;;;;;;;;;;10244800;28;20065;-53
2021/12/16 07:17:35;;;;;;;38.30;26.48;;;;;;;;;;10240324;28;20072;-54
2021/12/16 07:22:34;;;;;;;40.30;24.92;;;;;;;;;;10237373;28;20092;-53
2021/12/16 07:27:35;;;;;;;44.53;24.90;;;;;;;;;;10232665;28;20061;-52
2021/12/16 07:32:34;;;;;;;46.83;30.70;;;;;;;;;;10238193;28;20076;-54
2021/12/16 07:37:32;;;;;;;52.42;33.78;;;;;;;;;;10235887;28;20057;-55
2021/12/16 07:42:41;;;;;;;145.80;71.95;;;;;;;;;;10230741;28;20095;-52
2021/12/16 07:47:41;;;;;;;86.72;39.75;;;;;;;;;;10229880;28;20107;-53
2021/12/16 07:52:41;;;;;;;106.22;40.72;;;;;;;;;;10231808;28;20073;-52
2021/12/16 07:57:39;;;;;;;90.32;39.10;;;;;;;;;;10239725;28;20069;-53
2021/12/16 08:02:38;;;;;;;140.43;46.88;;;;;;;;;;10242592;28;20072;-55
2021/12/16 08:07:38;;;;;;;112.78;39.70;;;;;;;;;;10236646;28;20087;-53
2021/12/16 08:12:37;;;;;;;100.28;41.58;;;;;;;;;;10240502;28;20084;-54
2021/12/16 08:17:35;;;;;;;133.98;39.80;;;;;;;;;;10239284;28;20056;-51
2021/12/16 08:22:34;;;;;;;110.05;40.80;;;;;;;;;;10239248;28;20069;-50
2021/12/16 08:27:37;;;;;;;81.22;41.90;;;;;;;;;;10238743;28;20100;-52
2021/12/16 08:32:36;;;;;;;77.75;34.75;;;;;;;;;;10243361;28;20041;-54
2021/12/16 08:37:35;;;;;;;93.93;40.47;;;;;;;;;;10240955;28;20094;-52
2021/12/16 08:42:36;;;;;;;67.85;34.55;;;;;;;;;;10239860;28;20075;-52
2021/12/16 08:47:34;;;;;;;82.97;34.20;;;;;;;;;;10235357;28;20064;-53
2021/12/16 08:52:33;;;;;;;87.28;33.55;;;;;;;;;;10236236;28;20108;-53
2021/12/16 08:57:31;;;;;;;63.38;32.13;;;;;;;;;;10238504;28;20072;-54
2021/12/16 09:02:31;;;;;;;100.10;44.30;;;;;;;;;;10247579;28;20056;-55
2021/12/16 09:07:29;;;;;;;64.32;29.38;;;;;;;;;;10244987;28;20073;-53
2021/12/16 09:12:49;;;;;;;65.30;36.13;;;;;;;;;;10244835;28;20093;-52
2021/12/16 09:17:49;;;;;;;68.25;37.08;;;;;;;;;;10245471;28;20069;-51
2021/12/16 09:22:48;;;;;;;59.40;36.78;;;;;;;;;;10243566;28;20392;-54
2021/12/16 09:27:47;;;;;;;63.28;37.78;;;;;;;;;;10245749;28;20073;-52
2021/12/16 09:32:46;;;;;;;61.40;34.95;;;;;;;;;;10244106;28;20080;-53
2021/12/16 09:37:46;;;;;;;72.13;39.50;;;;;;;;;;10245073;28;20033;-55
2021/12/16 09:42:44;;;;;;;62.40;37.78;;;;;;;;;;10244026;28;20041;-52
2021/12/16 09:47:44;;;;;;;68.75;43.83;;;;;;;;;;10242459;28;20080;-51
2021/12/16 09:52:42;;;;;;;100.78;36.58;;;;;;;;;;10242562;28;20195;-55
2021/12/16 09:57:42;;;;;;;65.40;33.92;;;;;;;;;;10242946;28;20489;-52
2021/12/16 10:02:40;;;;;;;68.47;29.15;;;;;;;;;;10242461;28;20370;-53
2021/12/16 10:07:39;;;;;;;74.45;36.13;;;;;;;;;;10241547;28;20138;-54
2021/12/16 10:12:41;;;;;;;82.43;39.95;;;;;;;;;;10240031;28;20075;-54
2021/12/16 10:17:42;;;;;;;59.15;32.53;;;;;;;;;;10243888;28;20073;-55
2021/12/16 10:22:42;;;;;;;68.88;39.45;;;;;;;;;;10243442;28;20064;-54
2021/12/16 10:27:51;;;;;;;55.30;33.55;;;;;;;;;;10242815;28;20088;-54
2021/12/16 10:32:51;;;;;;;48.85;29.58;;;;;;;;;;10244732;28;20041;-53
2021/12/16 10:37:51;;;;;;;67.85;38.67;;;;;;;;;;10242753;28;20061;-49
2021/12/16 10:42:50;;;;;;;55.35;32.45;;;;;;;;;;10244051;28;20496;-52
2021/12/16 10:48:03;;;;;;;64.03;36.28;;;;;;;;;;10243394;28;20091;-54
2021/12/16 10:53:03;;;;;;;55.83;33.38;;;;;;;;;;10241545;28;20060;-53
2021/12/16 10:58:01;;;;;;;64.63;37.78;;;;;;;;;;10243467;28;20072;-56
2021/12/16 11:02:59;;;;;;;40.38;26.30;;;;;;;;;;10242644;28;20068;-56
2021/12/16 11:07:59;;;;;;;42.88;27.92;;;;;;;;;;10242235;28;20084;-52
2021/12/16 11:13:01;;;;;;;60.72;37.72;;;;;;;;;;10241863;28;20505;-55
2021/12/16 11:18:02;;;;;;;54.67;29.55;;;;;;;;;;10245634;28;20058;-55
2021/12/16 11:23:03;;;;;;;46.33;27.02;;;;;;;;;;10245361;28;20080;-54
2021/12/16 11:28:11;;;;;;;52.60;28.75;;;;;;;;;;10243871;28;20088;-54
2021/12/16 11:33:15;;;;;;;52.58;31.23;;;;;;;;;;10244355;28;20069;-54
2021/12/16 11:38:16;;;;;;;71.30;36.70;;;;;;;;;;10244419;28;20068;-53
2021/12/16 11:43:16;;;;;;;61.33;34.40;;;;;;;;;;10242843;28;20092;-54
2021/12/16 11:48:27;;;;;;;54.17;32.17;;;;;;;;;;10240662;28;20404;-54
2021/12/16 11:53:34;;;;;;;64.32;36.22;;;;;;;;;;10245083;28;20091;-51
2021/12/16 11:58:33;;;;;;;59.40;32.25;;;;;;;;;;10241821;28;20108;-52
2021/12/16 12:03:34;;;;;;;71.32;37.55;;;;;;;;;;10242114;28;20085;-54
2021/12/16 12:08:32;;;;;;;72.10;35.65;;;;;;;;;;10240163;28;20191;-54
2021/12/16 12:13:35;;;;;;;127.57;63.60;;;;;;;;;;10238945;28;20061;-52
2021/12/16 12:18:40;;;;;;;106.20;57.00;;;;;;;;;;10242368;28;20485;-52
2021/12/16 12:23:39;;;;;;;83.20;46.65;;;;;;;;;;10240184;28;20095;-54
2021/12/16 12:28:37;;;;;;;89.75;50.95;;;;;;;;;;10240225;28;20075;-50
2021/12/16 12:33:35;;;;;;;99.18;55.65;;;;;;;;;;10246258;28;20064;-52
2021/12/16 12:38:36;;;;;;;90.15;48.92;;;;;;;;;;10248176;28;20067;-53
2021/12/16 12:43:35;;;;;;;134.25;71.20;;;;;;;;;;10247495;28;20479;-49
2021/12/16 12:48:34;;;;;;;127.53;64.22;;;;;;;;;;10248442;28;20068;-51
2021/12/16 12:53:34;;;;;;;98.53;51.53;;;;;;;;;;10249468;28;20060;-53
2021/12/16 12:58:34;;;;;;;152.48;76.47;;;;;;;;;;10250749;28;20133;-48
2021/12/16 13:03:34;;;;;;;115.95;57.13;;;;;;;;;;10248906;28;20077;-51
2021/12/16 13:08:34;;;;;;;298.60;143.88;;;;;;;;;;10246379;28;20037;-48
2021/12/16 13:13:41;;;;;;;219.57;108.65;;;;;;;;;;10246713;28;20065;-52
2021/12/16 13:24:11;;;;;;;;;;;;;;;;;;10251647;28;20073;-52
2021/12/16 13:29:22;;;;;;;96.63;52.95;;;;;;;;;;10251636;28;19971;-55
2021/12/16 13:34:26;;;;;;;108.25;62.95;;;;;;;;;;10246276;28;20458;-52
2021/12/16 13:39:26;;;;;;;412.40;233.18;;;;;;;;;;10248244;28;20491;-53
2021/12/16 13:44:39;;;;;;;101.70;56.63;;;;;;;;;;10250472;28;20064;-54
2021/12/16 14:05:54;;;;;;;100.20;58.15;;;;;;;;;;10247488;28;20542;-55
2021/12/16 14:10:55;;;;;;;108.28;64.05;;;;;;;;;;10243488;28;20069;-55
2021/12/16 14:16:01;;;;;;;105.57;66.85;;;;;;;;;;10245989;28;20138;-56
2021/12/16 14:26:33;;;;;;;68.50;43.70;;;;;;;;;;10243891;28;20057;-54
2021/12/16 14:42:17;;;;;;;140.15;75.53;;;;;;;;;;10243480;28;20073;-52
2021/12/16 14:47:51;;;;;;;99.00;55.85;;;;;;;;;;10243585;28;20529;-53
2021/12/16 14:52:48;;;;;;;72.68;47.90;;;;;;;;;;10243893;28;20072;-48
2021/12/16 14:57:48;;;;;;;78.10;52.88;;;;;;;;;;10242518;28;20081;-50
2021/12/16 15:02:49;;;;;;;94.57;59.08;;;;;;;;;;10245952;28;20520;-51
2021/12/16 15:07:47;;;;;;;74.88;49.55;;;;;;;;;;10248117;28;20088;-52
2021/12/16 15:12:51;;;;;;;90.70;60.72;;;;;;;;;;10245924;28;20439;-50
2021/12/16 15:39:28;;;;;;;116.55;74.85;;;;;;;;;;10246518;28;20459;-52
2021/12/16 15:44:26;;;;;;;94.07;60.55;;;;;;;;;;10247628;28;20077;-49
2021/12/16 15:49:26;;;;;;;149.20;95.72;;;;;;;;;;10246746;28;20071;-52
2021/12/16 15:54:29;;;;;;;118.05;75.00;;;;;;;;;;10243372;28;20088;-52
2021/12/16 15:59:29;;;;;;;113.35;72.07;;;;;;;;;;10241710;28;20073;-54
2021/12/16 16:04:30;;;;;;;92.40;57.33;;;;;;;;;;10239961;28;20073;-55
2021/12/16 16:09:30;;;;;;;132.85;85.50;;;;;;;;;;10239087;28;20529;-53
2021/12/16 16:14:32;;;;;;;125.90;78.53;;;;;;;;;;10241063;28;20079;-52
2021/12/16 16:19:34;;;;;;;77.97;50.60;;;;;;;;;;10243585;28;20080;-54
2021/12/16 16:24:33;;;;;;;97.13;60.33;;;;;;;;;;10247827;28;20069;-52
2021/12/16 16:29:32;;;;;;;275.25;172.35;;;;;;;;;;10238171;28;20077;-54
2021/12/16 16:34:33;;;;;;;127.18;82.68;;;;;;;;;;10241872;28;20480;-56
2021/12/16 16:39:33;;;;;;;103.97;68.22;;;;;;;;;;10240226;28;20119;-52
2021/12/16 16:44:32;;;;;;;92.32;58.67;;;;;;;;;;10243209;28;20115;-54
2021/12/16 16:49:34;;;;;;;125.80;99.07;;;;;;;;;;10245086;28;20073;-55
2021/12/16 16:54:35;;;;;;;117.32;86.32;;;;;;;;;;10247126;28;20456;-54
2021/12/16 16:59:39;;;;;;;105.03;72.82;;;;;;;;;;10245320;28;20088;-57
2021/12/16 17:04:38;;;;;;;101.63;67.10;;;;;;;;;;10245060;28;20037;-52
2021/12/16 17:09:39;;;;;;;104.18;67.82;;;;;;;;;;10243755;28;20509;-52
2021/12/16 17:14:42;;;;;;;157.82;89.40;;;;;;;;;;10241593;28;20056;-53
2021/12/16 17:19:43;;;;;;;146.55;89.03;;;;;;;;;;10239613;28;20470;-55
2021/12/16 17:24:43;;;;;;;138.48;85.80;;;;;;;;;;10248224;28;20486;-51
2021/12/16 17:29:42;;;;;;;129.75;82.85;;;;;;;;;;10252958;28;20069;-54
2021/12/16 17:34:45;;;;;;;209.30;106.15;;;;;;;;;;10244683;28;20086;-52
2021/12/16 17:39:45;;;;;;;206.95;111.40;;;;;;;;;;10246358;28;20072;-55
2021/12/16 17:44:45;;;;;;;174.27;102.30;;;;;;;;;;10247056;28;20053;-53
2021/12/16 17:49:44;;;;;;;200.00;108.45;;;;;;;;;;10249064;28;20490;-49
2021/12/16 17:54:43;;;;;;;123.22;74.93;;;;;;;;;;10245781;28;20467;-50
2021/12/16 17:59:42;;;;;;;167.80;102.80;;;;;;;;;;10244750;28;20080;-53
2021/12/16 18:04:44;;;;;;;113.82;70.65;;;;;;;;;;10248253;28;20072;-53
2021/12/16 18:09:44;;;;;;;89.03;56.95;;;;;;;;;;10245833;28;20227;-52
2021/12/16 18:14:45;;;;;;;127.55;75.68;;;;;;;;;;10246805;28;20589;-48
2021/12/16 18:19:45;;;;;;;107.20;66.50;;;;;;;;;;10247742;28;20064;-51
2021/12/16 18:24:47;;;;;;;101.90;68.28;;;;;;;;;;10255710;28;20073;-48
2021/12/16 18:29:45;;;;;;;83.63;52.85;;;;;;;;;;10245031;28;20103;-55
2021/12/16 18:34:50;;;;;;;123.05;79.43;;;;;;;;;;10247984;28;20072;-52
2021/12/16 18:39:54;;;;;;;94.93;62.25;;;;;;;;;;10241975;28;20064;-53
2021/12/16 18:44:55;;;;;;;110.05;67.32;;;;;;;;;;10254681;28;20081;-51
2021/12/16 18:49:58;;;;;;;122.68;72.28;;;;;;;;;;10250006;28;20507;-51
2021/12/16 18:54:57;;;;;;;102.53;64.03;;;;;;;;;;10246182;28;20084;-56
2021/12/16 18:59:57;;;;;;;117.40;72.53;;;;;;;;;;10245681;28;20088;-49
2021/12/16 19:04:56;;;;;;;179.00;108.03;;;;;;;;;;10245444;28;20469;-55
2021/12/16 19:09:55;;;;;;;117.97;72.90;;;;;;;;;;10243698;28;20492;-54
2021/12/16 19:14:57;;;;;;;102.05;63.42;;;;;;;;;;10247395;28;20497;-54
2021/12/16 19:19:55;;;;;;;104.70;62.53;;;;;;;;;;10250786;28;20060;-52
2021/12/16 19:24:54;;;;;;;77.38;48.75;;;;;;;;;;10252701;28;20061;-54
2021/12/16 19:29:54;;;;;;;102.82;58.30;;;;;;;;;;10243291;28;20049;-55
2021/12/16 19:34:59;;;;;;;83.95;49.90;;;;;;;;;;10245381;28;20506;-51
2021/12/16 19:39:58;;;;;;;90.90;54.20;;;;;;;;;;10240856;28;20073;-56
2021/12/16 19:44:56;;;;;;;75.80;45.50;;;;;;;;;;10243426;28;20603;-54
2021/12/16 19:49:56;;;;;;;62.75;38.90;;;;;;;;;;10247303;28;20053;-53
2021/12/16 19:54:54;;;;;;;58.80;37.28;;;;;;;;;;10236653;28;20558;-51
2021/12/16 19:59:53;;;;;;;78.20;47.80;;;;;;;;;;10242330;28;20077;-55
2021/12/16 20:04:51;;;;;;;54.00;35.28;;;;;;;;;;10245606;28;20071;-55
2021/12/16 20:09:52;;;;;;;58.45;39.30;;;;;;;;;;10242607;28;20057;-54
2021/12/16 20:14:51;;;;;;;48.35;33.05;;;;;;;;;;10244104;28;20521;-53
2021/12/16 20:19:51;;;;;;;51.85;33.20;;;;;;;;;;10243542;28;20056;-54
2021/12/16 20:24:52;;;;;;;49.53;33.67;;;;;;;;;;10241259;28;20151;-53
2021/12/16 20:29:53;;;;;;;64.70;39.03;;;;;;;;;;10240703;28;20060;-52
2021/12/16 20:34:54;;;;;;;41.25;30.73;;;;;;;;;;10240844;28;20458;-53
2021/12/16 20:39:55;;;;;;;49.40;30.27;;;;;;;;;;10242104;28;20304;-55
2021/12/16 20:44:58;;;;;;;51.72;33.17;;;;;;;;;;10242623;28;20072;-52
2021/12/16 20:49:58;;;;;;;75.78;44.97;;;;;;;;;;10239833;28;20096;-53
2021/12/16 20:55:01;;;;;;;50.00;30.92;;;;;;;;;;10246976;28;20431;-54
2021/12/16 21:00:01;;;;;;;56.50;32.80;;;;;;;;;;10251737;28;20057;-53
2021/12/16 21:05:02;;;;;;;72.38;39.78;;;;;;;;;;10250199;28;20056;-51
2021/12/16 21:10:01;;;;;;;92.68;48.45;;;;;;;;;;10272751;28;20048;-53
2021/12/16 21:15:02;;;;;;;49.63;34.03;;;;;;;;;;10263108;28;20561;-52
2021/12/16 21:20:00;;;;;;;51.75;35.05;;;;;;;;;;10238337;28;20041;-52
2021/12/16 21:24:59;;;;;;;53.80;36.10;;;;;;;;;;10243716;28;20045;-55
2021/12/16 21:29:58;;;;;;;48.28;32.78;;;;;;;;;;10248055;28;20564;-55
2021/12/16 21:35:00;;;;;;;44.85;29.38;;;;;;;;;;10237734;28;20533;-54
2021/12/16 21:39:58;;;;;;;41.03;27.80;;;;;;;;;;10239893;28;20121;-54
2021/12/16 21:44:58;;;;;;;45.45;31.00;;;;;;;;;;10248596;28;20061;-52
2021/12/16 21:49:59;;;;;;;36.35;24.92;;;;;;;;;;10245826;28;20065;-53
2021/12/16 21:54:58;;;;;;;48.33;30.48;;;;;;;;;;10249510;28;20065;-52
2021/12/16 21:59:56;;;;;;;37.25;25.83;;;;;;;;;;10262475;28;20096;-49
2021/12/16 22:04:55;;;;;;;40.75;26.65;;;;;;;;;;10247412;28;20073;-53
2021/12/16 22:09:58;;;;;;;33.50;23.67;;;;;;;;;;10247052;28;20077;-52
2021/12/16 22:14:56;;;;;;;68.93;38.65;;;;;;;;;;10268418;28;20077;-46
2021/12/16 22:19:55;;;;;;;37.47;24.63;;;;;;;;;;10274728;28;20549;-51
2021/12/16 22:24:54;;;;;;;52.25;31.63;;;;;;;;;;10273946;28;20502;-53
2021/12/16 22:29:53;;;;;;;43.22;28.92;;;;;;;;;;10274937;28;20514;-49
2021/12/16 22:34:52;;;;;;;32.42;22.45;;;;;;;;;;10274924;28;20416;-50
2021/12/16 22:39:50;;;;;;;31.45;22.45;;;;;;;;;;10273456;28;20065;-53
2021/12/16 22:44:50;;;;;;;26.25;20.15;;;;;;;;;;10273375;28;20395;-56
2021/12/16 22:49:48;;;;;;;37.17;24.33;;;;;;;;;;10234374;28;20547;-52
2021/12/16 22:54:47;;;;;;;37.15;24.60;;;;;;;;;;10247419;28;20068;-53
2021/12/16 22:59:46;;;;;;;35.47;22.70;;;;;;;;;;10237164;28;20073;-55
2021/12/16 23:04:47;;;;;;;37.58;25.63;;;;;;;;;;10234859;28;20080;-53
2021/12/16 23:09:45;;;;;;;33.60;22.90;;;;;;;;;;10243847;28;20041;-54
2021/12/16 23:14:48;;;;;;;35.28;23.70;;;;;;;;;;10233329;28;20493;-52
2021/12/16 23:25:09;;;;;;;32.17;21.52;;;;;;;;;;10266103;28;20083;-53
2021/12/16 23:30:09;;;;;;;33.92;22.85;;;;;;;;;;10256965;28;20080;-52
2021/12/16 23:35:10;;;;;;;34.63;23.17;;;;;;;;;;10232336;28;20081;-56
2021/12/16 23:40:11;;;;;;;32.97;22.92;;;;;;;;;;10232808;28;20081;-53
2021/12/16 23:55:54;;;;;;;32.73;22.23;;;;;;;;;;10229130;28;20076;-55
